To NAV CANADA Home Page Login to a new session Search on AWWS site Disclaimer Vers la page française équivalente Tips FAQ What's new on the site To the Forecasts and Observations / NOTAM section To "File a Flight Plan" website Publications and other links Update of the User's profile FIC Telephone Numbers My Weather Data Folder Route Weather Data Regional Weather Data Local Weather Data To the Forecasts and Observations / NOTAM section
Request Generated 10/19/2018 at 15:50:18 UTC . Weather information available at that time is displayed.

METAR/TAF

MUSKOKA/ON    (show WxCam)

METAR CYQA 191500Z AUTO 20010KT 9SM CLR 11/04 A2992 RMK SLP142=
METAR CYQA 191400Z AUTO 20009KT 9SM CLR 09/04 A2995 RMK SLP151=
METAR CYQA 191300Z AUTO 14003KT 110V180 9SM CLR 06/03 A2998 RMK SLP162=

TAF CYQA 191340Z 1914/2002 16005KT P6SM FEW015
BECMG 1914/1916 23015G25KT
FM192000 22015G25KT P6SM SCT030 BKN140 TEMPO 1920/1922 BKN030
BKN140
FM192200 21012G22KT P6SM -RA BKN025 OVC080 TEMPO 1922/2002 3SM
-RA BR OVC015 PROB30 2000/2002 21/2SM -RA BR BKN008 OVC015
RMK FCST BASED ON AUTO OBS. NXT FCST BY 192000Z=
Your time UTC time
Weather data provided by Environment Canada and NAV CANADA